Time;durP1;ratioP1;P1;durP2;ratioP2;P2;SDS_P1;SDS_P2;PMS_P1;PMS_P2;Temp;Humidity;BMP_temperature;BMP_pressure;BME280_temperature;BME280_humidity;BME280_pressure;Samples;Min_cycle;Max_cycle;Signal;HPM_P1;HPM_P2
2023/12/06 00:00:44;;;;;;;83.57;32.60;;;;;;;;;;4952394;28;20042;-52
2023/12/06 00:03:10;;;;;;;90.32;35.50;;;;;;;;;;4946777;28;20034;-53
2023/12/06 00:05:37;;;;;;;87.03;32.80;;;;;;;;;;4947414;28;20035;-55
2023/12/06 00:08:03;;;;;;;89.70;36.15;;;;;;;;;;4949015;28;20521;-53
2023/12/06 00:10:29;;;;;;;96.15;37.28;;;;;;;;;;4946747;28;20122;-55
2023/12/06 00:12:55;;;;;;;97.32;36.75;;;;;;;;;;4958587;28;20115;-55
2023/12/06 00:15:21;;;;;;;96.43;38.60;;;;;;;;;;4947597;28;20034;-52
2023/12/06 00:17:47;;;;;;;102.80;38.85;;;;;;;;;;4947291;28;20510;-53
2023/12/06 00:20:13;;;;;;;115.13;42.25;;;;;;;;;;4953194;28;20403;-55
2023/12/06 00:22:39;;;;;;;133.10;44.55;;;;;;;;;;4950442;28;20046;-55
2023/12/06 00:25:05;;;;;;;129.05;42.63;;;;;;;;;;4949339;28;20031;-57
2023/12/06 00:27:31;;;;;;;129.38;43.15;;;;;;;;;;4948844;28;20038;-56
2023/12/06 00:29:57;;;;;;;135.10;46.03;;;;;;;;;;4947158;28;20355;-55
2023/12/06 00:32:23;;;;;;;141.43;46.58;;;;;;;;;;4948371;28;20054;-56
2023/12/06 00:34:49;;;;;;;142.55;48.28;;;;;;;;;;4950202;28;20067;-57
2023/12/06 00:37:15;;;;;;;140.95;44.58;;;;;;;;;;4949752;28;20046;-58
2023/12/06 00:39:41;;;;;;;135.43;46.83;;;;;;;;;;4951216;28;20068;-56
2023/12/06 00:42:07;;;;;;;120.57;44.45;;;;;;;;;;4951886;28;20467;-55
2023/12/06 00:44:33;;;;;;;154.32;49.65;;;;;;;;;;4946984;28;20043;-56
2023/12/06 00:46:59;;;;;;;157.75;51.78;;;;;;;;;;4952183;28;20303;-55
2023/12/06 00:49:25;;;;;;;148.63;49.13;;;;;;;;;;4947959;28;20035;-56
2023/12/06 00:51:51;;;;;;;158.35;51.85;;;;;;;;;;4948932;28;20462;-58
2023/12/06 00:54:17;;;;;;;149.40;48.78;;;;;;;;;;4946279;28;20482;-56
2023/12/06 00:56:43;;;;;;;162.57;51.05;;;;;;;;;;4949159;28;20073;-57
2023/12/06 00:59:09;;;;;;;147.32;48.45;;;;;;;;;;4941546;28;20042;-55
2023/12/06 01:01:35;;;;;;;144.25;48.40;;;;;;;;;;4951824;28;20042;-56
2023/12/06 01:04:02;;;;;;;157.07;50.63;;;;;;;;;;4949827;28;20406;-56
2023/12/06 01:06:28;;;;;;;151.45;50.55;;;;;;;;;;4949648;28;20038;-55
2023/12/06 01:08:54;;;;;;;156.70;49.63;;;;;;;;;;4950257;28;20252;-55
2023/12/06 01:11:20;;;;;;;149.93;49.72;;;;;;;;;;4949818;28;20040;-55
2023/12/06 01:13:46;;;;;;;152.52;51.85;;;;;;;;;;4949452;28;20047;-57
2023/12/06 01:16:12;;;;;;;147.32;51.72;;;;;;;;;;4945630;28;20050;-56
2023/12/06 01:18:38;;;;;;;156.98;53.92;;;;;;;;;;4951657;28;20038;-56
2023/12/06 01:21:04;;;;;;;130.23;42.28;;;;;;;;;;4946735;28;20035;-56
2023/12/06 01:23:30;;;;;;;157.13;52.75;;;;;;;;;;4947633;28;20109;-55
2023/12/06 01:25:56;;;;;;;152.07;51.72;;;;;;;;;;4954401;28;20348;-54
2023/12/06 01:28:22;;;;;;;167.88;54.45;;;;;;;;;;4948909;28;20134;-56
2023/12/06 01:30:48;;;;;;;159.80;51.33;;;;;;;;;;4948214;28;20508;-54
2023/12/06 01:33:14;;;;;;;155.57;53.03;;;;;;;;;;4947071;28;20035;-54
2023/12/06 01:35:40;;;;;;;165.48;55.08;;;;;;;;;;4946336;28;20117;-53
2023/12/06 01:38:06;;;;;;;154.60;52.60;;;;;;;;;;4946436;28;20391;-55
2023/12/06 01:40:35;;;;;;;152.27;53.30;;;;;;;;;;4954165;28;20120;-54
2023/12/06 01:43:01;;;;;;;148.60;53.20;;;;;;;;;;4949847;28;20148;-52
2023/12/06 01:45:28;;;;;;;144.07;50.72;;;;;;;;;;4945763;28;20050;-53
2023/12/06 01:47:54;;;;;;;148.25;53.55;;;;;;;;;;4952303;28;20059;-54
2023/12/06 01:50:21;;;;;;;139.65;53.03;;;;;;;;;;4947740;28;20039;-53
2023/12/06 01:52:47;;;;;;;145.10;53.70;;;;;;;;;;4952600;28;20255;-53
2023/12/06 01:55:14;;;;;;;146.88;56.28;;;;;;;;;;4948690;28;20036;-52
2023/12/06 01:57:40;;;;;;;137.15;53.67;;;;;;;;;;4947316;28;20842;-55
2023/12/06 02:00:07;;;;;;;140.05;53.38;;;;;;;;;;4949804;28;20610;-55
2023/12/06 02:02:34;;;;;;;138.95;54.75;;;;;;;;;;4948008;28;20027;-56
2023/12/06 02:05:00;;;;;;;130.05;51.72;;;;;;;;;;4945450;28;20035;-53
2023/12/06 02:07:27;;;;;;;131.90;52.10;;;;;;;;;;4947506;28;20711;-54
2023/12/06 02:09:53;;;;;;;130.63;49.90;;;;;;;;;;4950162;28;20046;-55
2023/12/06 02:12:20;;;;;;;135.52;53.72;;;;;;;;;;4951763;28;20045;-56
2023/12/06 02:14:46;;;;;;;119.95;48.50;;;;;;;;;;4948706;28;20332;-53
2023/12/06 02:17:12;;;;;;;120.00;50.30;;;;;;;;;;4950029;28;20134;-53
2023/12/06 02:19:38;;;;;;;124.43;51.70;;;;;;;;;;4950414;28;20401;-55
2023/12/06 02:22:05;;;;;;;131.75;52.13;;;;;;;;;;4946210;28;20030;-53
2023/12/06 02:24:31;;;;;;;113.43;48.40;;;;;;;;;;4948580;28;20336;-55
2023/12/06 02:26:57;;;;;;;119.05;50.97;;;;;;;;;;4946395;28;20347;-55
2023/12/06 02:29:24;;;;;;;105.10;48.70;;;;;;;;;;4944007;28;20549;-52
2023/12/06 02:31:50;;;;;;;112.20;50.80;;;;;;;;;;4947537;28;20577;-54
2023/12/06 02:34:18;;;;;;;111.20;49.35;;;;;;;;;;4945281;28;20404;-53
2023/12/06 02:36:47;;;;;;;110.47;48.85;;;;;;;;;;4947437;28;20031;-53
2023/12/06 02:39:13;;;;;;;104.97;48.45;;;;;;;;;;4951408;28;20050;-55
2023/12/06 02:41:39;;;;;;;103.75;46.05;;;;;;;;;;4953252;28;20040;-53
2023/12/06 02:44:05;;;;;;;99.85;46.97;;;;;;;;;;4948908;28;20399;-53
2023/12/06 02:46:31;;;;;;;99.97;46.30;;;;;;;;;;4945927;28;20063;-52
2023/12/06 02:48:57;;;;;;;103.75;45.88;;;;;;;;;;4949391;28;20043;-55
2023/12/06 02:51:23;;;;;;;97.18;45.78;;;;;;;;;;4943340;28;20040;-52
2023/12/06 02:53:52;;;;;;;95.55;46.78;;;;;;;;;;4950084;28;20070;-54
2023/12/06 02:56:18;;;;;;;94.70;44.55;;;;;;;;;;4951534;28;20122;-54
2023/12/06 02:58:44;;;;;;;96.80;45.50;;;;;;;;;;4955175;28;20508;-55
2023/12/06 03:01:10;;;;;;;91.88;44.53;;;;;;;;;;4947106;28;20446;-51
2023/12/06 03:03:36;;;;;;;88.30;42.55;;;;;;;;;;4955353;28;20045;-55
2023/12/06 03:06:02;;;;;;;93.65;44.28;;;;;;;;;;4947899;28;20530;-51
2023/12/06 03:08:28;;;;;;;90.07;43.72;;;;;;;;;;4951745;28;20513;-52
2023/12/06 03:10:54;;;;;;;90.32;44.53;;;;;;;;;;4952556;28;20411;-53
2023/12/06 03:13:20;;;;;;;91.25;45.47;;;;;;;;;;4951444;28;20104;-54
2023/12/06 03:15:46;;;;;;;92.88;44.80;;;;;;;;;;4946879;28;20046;-54
2023/12/06 03:18:12;;;;;;;92.03;44.40;;;;;;;;;;4952332;28;20525;-53
2023/12/06 03:20:38;;;;;;;91.20;44.35;;;;;;;;;;4958845;28;20023;-54
2023/12/06 03:23:04;;;;;;;93.72;44.45;;;;;;;;;;4950096;28;20105;-55
2023/12/06 03:25:30;;;;;;;91.47;44.13;;;;;;;;;;4948829;28;20089;-55
2023/12/06 03:27:57;;;;;;;89.88;43.97;;;;;;;;;;4950232;28;20398;-53
2023/12/06 03:30:23;;;;;;;89.40;43.30;;;;;;;;;;4949281;28;20035;-55
2023/12/06 03:32:49;;;;;;;94.05;44.45;;;;;;;;;;4953452;28;20396;-54
2023/12/06 03:35:15;;;;;;;89.60;44.50;;;;;;;;;;4950392;28;20479;-52
2023/12/06 03:37:41;;;;;;;96.10;45.92;;;;;;;;;;4952449;28;20106;-51
2023/12/06 03:40:07;;;;;;;92.00;44.80;;;;;;;;;;4951951;28;20105;-53
2023/12/06 03:42:33;;;;;;;91.70;44.40;;;;;;;;;;4953695;28;20038;-54
2023/12/06 03:44:59;;;;;;;95.45;45.58;;;;;;;;;;4944884;28;20039;-53
2023/12/06 03:47:26;;;;;;;91.05;44.83;;;;;;;;;;4950401;28;20151;-53
2023/12/06 03:49:52;;;;;;;96.63;44.40;;;;;;;;;;4956768;28;20042;-52
2023/12/06 03:52:18;;;;;;;94.95;46.33;;;;;;;;;;4956877;28;20054;-54
2023/12/06 03:54:44;;;;;;;93.80;44.50;;;;;;;;;;4948654;28;20467;-54
2023/12/06 03:57:10;;;;;;;94.60;44.25;;;;;;;;;;4965304;28;20477;-54
2023/12/06 03:59:36;;;;;;;96.63;45.65;;;;;;;;;;4954586;28;20093;-53
2023/12/06 04:02:02;;;;;;;92.00;43.60;;;;;;;;;;4951858;28;20039;-53
2023/12/06 04:04:28;;;;;;;93.80;44.58;;;;;;;;;;4954612;28;20074;-55
2023/12/06 04:06:54;;;;;;;93.75;44.30;;;;;;;;;;4947263;28;20058;-54
2023/12/06 04:09:20;;;;;;;92.80;44.45;;;;;;;;;;4947989;28;20122;-54
2023/12/06 04:11:46;;;;;;;96.07;45.03;;;;;;;;;;4950528;28;20062;-54
2023/12/06 04:14:12;;;;;;;98.38;45.67;;;;;;;;;;4952832;28;20039;-55
2023/12/06 04:16:38;;;;;;;106.78;47.33;;;;;;;;;;4950626;28;20308;-54
2023/12/06 04:19:04;;;;;;;93.07;44.47;;;;;;;;;;4952237;28;20026;-52
2023/12/06 04:21:30;;;;;;;98.78;44.72;;;;;;;;;;4953639;28;20054;-53
2023/12/06 04:23:56;;;;;;;108.53;45.50;;;;;;;;;;4948264;28;20146;-53
2023/12/06 04:26:22;;;;;;;107.00;46.08;;;;;;;;;;4947168;28;20034;-55
2023/12/06 04:28:48;;;;;;;103.70;45.78;;;;;;;;;;4952762;28;20129;-54
2023/12/06 04:31:14;;;;;;;97.75;44.72;;;;;;;;;;4946711;28;20040;-54
2023/12/06 04:33:40;;;;;;;105.32;47.10;;;;;;;;;;4955855;28;20619;-54
2023/12/06 04:36:06;;;;;;;111.95;46.70;;;;;;;;;;4948737;28;20313;-55
2023/12/06 04:38:33;;;;;;;104.80;44.45;;;;;;;;;;4947314;28;20903;-55
2023/12/06 04:40:59;;;;;;;108.78;47.42;;;;;;;;;;4955966;28;20493;-55
2023/12/06 04:43:25;;;;;;;112.32;45.92;;;;;;;;;;4943817;28;20526;-55
2023/12/06 04:45:51;;;;;;;108.82;46.40;;;;;;;;;;4950244;28;20035;-52
2023/12/06 04:48:17;;;;;;;112.00;46.03;;;;;;;;;;4952846;28;20065;-52
2023/12/06 04:50:43;;;;;;;107.10;46.25;;;;;;;;;;4953995;28;20041;-53
2023/12/06 04:53:09;;;;;;;112.63;47.97;;;;;;;;;;4950724;28;20035;-55
2023/12/06 04:55:35;;;;;;;111.28;46.67;;;;;;;;;;4950775;28;20489;-53
2023/12/06 04:58:02;;;;;;;117.28;48.65;;;;;;;;;;4947931;28;20470;-54
2023/12/06 05:00:30;;;;;;;117.07;47.50;;;;;;;;;;4950779;28;20344;-55
2023/12/06 05:02:56;;;;;;;115.57;47.90;;;;;;;;;;4951707;28;20035;-54
2023/12/06 05:05:22;;;;;;;118.97;49.35;;;;;;;;;;4953537;28;20047;-52
2023/12/06 05:07:48;;;;;;;117.78;48.92;;;;;;;;;;4946666;28;20110;-54
2023/12/06 05:10:14;;;;;;;116.93;48.88;;;;;;;;;;4961138;28;20088;-55
2023/12/06 05:12:40;;;;;;;115.18;49.47;;;;;;;;;;4953037;28;20039;-53
2023/12/06 05:15:06;;;;;;;116.32;47.22;;;;;;;;;;4947993;28;20043;-53
2023/12/06 05:17:32;;;;;;;117.40;49.28;;;;;;;;;;4946898;28;20042;-55
2023/12/06 05:19:58;;;;;;;107.75;45.28;;;;;;;;;;4950380;28;20410;-56
2023/12/06 05:22:24;;;;;;;109.38;46.25;;;;;;;;;;4943268;28;20442;-54
2023/12/06 05:24:50;;;;;;;115.38;45.50;;;;;;;;;;4950473;28;20050;-51
2023/12/06 05:27:17;;;;;;;113.13;45.75;;;;;;;;;;4945367;28;20042;-54
2023/12/06 05:29:44;;;;;;;106.53;45.92;;;;;;;;;;4952614;28;20506;-53
2023/12/06 05:32:10;;;;;;;107.35;45.13;;;;;;;;;;4939448;28;20039;-54
2023/12/06 05:34:36;;;;;;;108.03;47.67;;;;;;;;;;4948011;28;20444;-51
2023/12/06 05:37:02;;;;;;;110.78;47.55;;;;;;;;;;4949054;28;20035;-55
2023/12/06 05:39:28;;;;;;;107.97;45.60;;;;;;;;;;4945772;28;20053;-56
2023/12/06 05:41:54;;;;;;;114.70;46.45;;;;;;;;;;4949438;28;20516;-54
2023/12/06 05:44:20;;;;;;;112.47;47.70;;;;;;;;;;4952145;28;20038;-55
2023/12/06 05:46:46;;;;;;;109.10;48.10;;;;;;;;;;4946185;28;20039;-56
2023/12/06 05:49:12;;;;;;;110.18;48.72;;;;;;;;;;4947547;28;20085;-52
2023/12/06 05:51:38;;;;;;;112.30;49.80;;;;;;;;;;4960307;28;20034;-57
2023/12/06 05:54:04;;;;;;;117.65;51.47;;;;;;;;;;4952528;28;20046;-56
2023/12/06 05:56:30;;;;;;;115.00;47.70;;;;;;;;;;4953418;28;20276;-56
2023/12/06 05:58:56;;;;;;;110.50;48.67;;;;;;;;;;4953736;28;20042;-55
2023/12/06 06:01:23;;;;;;;111.85;49.50;;;;;;;;;;4949051;28;20118;-56
2023/12/06 06:03:49;;;;;;;117.63;51.78;;;;;;;;;;4952367;28;20050;-52
2023/12/06 06:06:15;;;;;;;110.78;49.00;;;;;;;;;;4958980;28;20043;-54
2023/12/06 06:08:41;;;;;;;110.95;49.97;;;;;;;;;;4960637;28;20530;-57
2023/12/06 06:11:07;;;;;;;107.88;49.42;;;;;;;;;;4951895;28;20450;-55
2023/12/06 06:13:33;;;;;;;103.63;49.70;;;;;;;;;;4959777;28;20376;-56
2023/12/06 06:15:59;;;;;;;105.60;50.30;;;;;;;;;;4952100;28;20042;-57
2023/12/06 06:18:27;;;;;;;106.30;50.55;;;;;;;;;;4940728;28;20038;-57
2023/12/06 06:20:53;;;;;;;112.07;50.40;;;;;;;;;;4941126;28;20517;-56
2023/12/06 06:23:19;;;;;;;112.38;51.97;;;;;;;;;;4951220;28;20042;-56
2023/12/06 06:25:45;;;;;;;106.30;50.17;;;;;;;;;;4943982;28;20526;-57
2023/12/06 06:28:12;;;;;;;105.95;48.90;;;;;;;;;;4951898;28;20209;-57
2023/12/06 06:30:38;;;;;;;104.57;49.13;;;;;;;;;;4947655;28;20307;-55
2023/12/06 06:33:04;;;;;;;110.97;50.30;;;;;;;;;;4956308;28;20450;-56
2023/12/06 06:35:30;;;;;;;100.55;47.20;;;;;;;;;;4950844;28;20303;-52
2023/12/06 06:37:56;;;;;;;73.28;40.92;;;;;;;;;;4957810;28;20050;-55
2023/12/06 06:40:22;;;;;;;88.13;46.22;;;;;;;;;;4951178;28;20051;-54
2023/12/06 06:42:48;;;;;;;98.55;49.60;;;;;;;;;;4952125;28;20190;-52
2023/12/06 06:45:14;;;;;;;103.32;49.53;;;;;;;;;;4951072;28;20554;-53
2023/12/06 06:47:41;;;;;;;105.95;49.25;;;;;;;;;;4957942;28;20121;-53
2023/12/06 06:50:08;;;;;;;99.00;48.72;;;;;;;;;;4957086;28;20138;-53
2023/12/06 06:52:34;;;;;;;108.65;50.95;;;;;;;;;;4955823;28;20034;-54
2023/12/06 06:55:00;;;;;;;101.90;50.60;;;;;;;;;;4955865;28;20043;-53
2023/12/06 06:57:26;;;;;;;101.05;49.40;;;;;;;;;;4952704;28;20069;-54
2023/12/06 06:59:52;;;;;;;102.30;49.50;;;;;;;;;;4950971;28;20067;-54
2023/12/06 07:02:19;;;;;;;100.85;49.17;;;;;;;;;;4958639;28;20331;-49
2023/12/06 07:04:45;;;;;;;97.70;47.58;;;;;;;;;;4955952;28;20042;-51
2023/12/06 07:07:12;;;;;;;98.70;48.38;;;;;;;;;;4955652;28;20035;-52
2023/12/06 07:09:37;;;;;;;93.30;47.80;;;;;;;;;;4950281;28;20537;-51
2023/12/06 07:12:04;;;;;;;91.47;47.70;;;;;;;;;;4953333;28;20141;-51
2023/12/06 07:14:30;;;;;;;80.57;42.78;;;;;;;;;;4955991;28;20042;-53
2023/12/06 07:16:57;;;;;;;95.38;47.72;;;;;;;;;;4950920;28;20039;-51
2023/12/06 07:19:23;;;;;;;97.32;47.22;;;;;;;;;;4951249;28;20073;-52
2023/12/06 07:21:49;;;;;;;83.95;45.10;;;;;;;;;;4950864;28;20046;-51
2023/12/06 07:24:16;;;;;;;89.68;47.20;;;;;;;;;;4971101;28;20469;-53
2023/12/06 07:26:45;;;;;;;88.13;47.20;;;;;;;;;;4965928;28;20050;-50
2023/12/06 07:29:12;;;;;;;84.97;44.22;;;;;;;;;;4976249;28;20076;-51
2023/12/06 07:31:39;;;;;;;86.82;44.28;;;;;;;;;;4973620;28;20043;-52
2023/12/06 07:34:05;;;;;;;83.68;44.22;;;;;;;;;;4972148;28;20737;-56
2023/12/06 07:36:31;;;;;;;85.38;44.38;;;;;;;;;;4972375;28;20038;-56
2023/12/06 07:38:58;;;;;;;85.78;44.08;;;;;;;;;;4961869;28;20043;-55
2023/12/06 07:41:24;;;;;;;80.75;44.20;;;;;;;;;;4972950;28;20037;-56
2023/12/06 07:43:50;;;;;;;78.78;42.90;;;;;;;;;;4967544;28;20514;-57
2023/12/06 07:46:16;;;;;;;82.78;43.72;;;;;;;;;;4974338;28;20052;-57
2023/12/06 07:48:42;;;;;;;80.50;44.78;;;;;;;;;;4993940;28;20045;-57
2023/12/06 07:51:08;;;;;;;80.82;43.97;;;;;;;;;;4990697;28;20202;-56
2023/12/06 07:53:34;;;;;;;74.88;42.53;;;;;;;;;;4989528;28;20158;-56
2023/12/06 07:56:00;;;;;;;82.75;44.42;;;;;;;;;;4993967;28;20034;-57
2023/12/06 07:58:30;;;;;;;62.40;38.53;;;;;;;;;;4993154;28;20038;-56
2023/12/06 08:00:56;;;;;;;85.07;44.78;;;;;;;;;;4994095;28;20037;-57
2023/12/06 08:03:26;;;;;;;86.38;45.72;;;;;;;;;;4990772;28;20125;-55
2023/12/06 08:05:52;;;;;;;87.97;43.85;;;;;;;;;;4987512;28;20626;-57
2023/12/06 08:08:18;;;;;;;77.07;42.92;;;;;;;;;;4993290;28;20037;-56
2023/12/06 08:10:44;;;;;;;75.72;43.45;;;;;;;;;;4987392;28;20038;-58
2023/12/06 08:13:10;;;;;;;75.70;42.80;;;;;;;;;;4987978;28;20112;-58
2023/12/06 08:15:36;;;;;;;80.13;42.88;;;;;;;;;;4990002;28;20046;-58
2023/12/06 08:18:03;;;;;;;81.22;44.25;;;;;;;;;;4991196;28;20042;-58
2023/12/06 08:20:28;;;;;;;78.00;42.85;;;;;;;;;;4995283;28;20034;-58
2023/12/06 08:22:57;;;;;;;78.80;42.78;;;;;;;;;;4987024;28;20045;-57
2023/12/06 08:25:23;;;;;;;79.63;44.05;;;;;;;;;;4993737;28;20510;-57
2023/12/06 08:27:49;;;;;;;84.68;43.17;;;;;;;;;;4987851;28;20428;-57
2023/12/06 08:30:15;;;;;;;85.00;45.03;;;;;;;;;;4988675;28;20533;-57
2023/12/06 08:32:41;;;;;;;81.60;43.53;;;;;;;;;;5000410;28;20378;-55
2023/12/06 08:35:07;;;;;;;78.65;43.40;;;;;;;;;;4991958;28;20091;-56
2023/12/06 08:37:33;;;;;;;85.35;44.55;;;;;;;;;;4989073;28;20505;-56
2023/12/06 08:39:59;;;;;;;77.57;44.47;;;;;;;;;;4991780;28;20117;-56
2023/12/06 08:42:25;;;;;;;80.03;42.13;;;;;;;;;;5006453;28;20037;-57
2023/12/06 08:44:53;;;;;;;82.05;42.83;;;;;;;;;;5001941;28;20041;-57
2023/12/06 08:47:19;;;;;;;78.90;43.45;;;;;;;;;;4985993;28;20045;-56
2023/12/06 08:49:45;;;;;;;78.78;41.97;;;;;;;;;;5007073;28;20053;-56
2023/12/06 08:52:11;;;;;;;77.00;42.22;;;;;;;;;;4988544;28;20181;-57
2023/12/06 08:54:38;;;;;;;78.30;41.88;;;;;;;;;;4998385;28;20033;-56
2023/12/06 08:57:04;;;;;;;76.63;42.20;;;;;;;;;;4998794;28;20449;-53
2023/12/06 08:59:30;;;;;;;79.72;42.85;;;;;;;;;;4996421;28;20048;-56
2023/12/06 09:01:57;;;;;;;79.65;43.03;;;;;;;;;;5003023;28;20052;-57
2023/12/06 09:04:23;;;;;;;75.63;42.72;;;;;;;;;;5002440;28;20053;-56
2023/12/06 09:06:49;;;;;;;74.68;40.25;;;;;;;;;;5005448;28;20044;-57
2023/12/06 09:09:17;;;;;;;76.28;41.83;;;;;;;;;;4996701;28;20080;-56
2023/12/06 09:11:44;;;;;;;79.80;42.20;;;;;;;;;;4999989;28;20038;-56
2023/12/06 09:14:10;;;;;;;77.22;41.63;;;;;;;;;;5000899;28;20687;-56
2023/12/06 09:16:36;;;;;;;76.35;41.97;;;;;;;;;;5007945;28;20053;-55
2023/12/06 09:19:03;;;;;;;74.90;40.97;;;;;;;;;;4996265;28;20025;-58
2023/12/06 09:21:38;;;;;;;71.88;40.75;;;;;;;;;;5002988;28;20159;-58
2023/12/06 09:24:05;;;;;;;74.45;41.00;;;;;;;;;;4996614;28;20111;-58
2023/12/06 09:26:31;;;;;;;72.55;40.53;;;;;;;;;;4998017;28;20045;-59
2023/12/06 09:28:57;;;;;;;71.22;39.65;;;;;;;;;;5010633;28;20102;-58
2023/12/06 09:31:23;;;;;;;70.32;40.28;;;;;;;;;;4998067;28;20065;-55
2023/12/06 09:33:48;;;;;;;68.15;38.55;;;;;;;;;;5003436;28;20502;-55
2023/12/06 09:36:15;;;;;;;79.63;41.97;;;;;;;;;;4996655;28;20030;-54
2023/12/06 09:38:41;;;;;;;80.93;42.85;;;;;;;;;;4995782;28;20041;-55
2023/12/06 09:41:07;;;;;;;72.97;40.03;;;;;;;;;;5000525;28;20560;-54
2023/12/06 09:43:33;;;;;;;74.72;40.30;;;;;;;;;;4998616;28;20369;-55
2023/12/06 09:45:59;;;;;;;78.70;42.10;;;;;;;;;;5001943;28;20034;-56
2023/12/06 09:48:25;;;;;;;75.10;41.22;;;;;;;;;;4996069;28;20034;-55
2023/12/06 09:50:51;;;;;;;73.45;40.15;;;;;;;;;;4993760;28;20093;-55
2023/12/06 09:53:17;;;;;;;76.47;41.78;;;;;;;;;;4990863;28;20138;-56
2023/12/06 09:55:43;;;;;;;68.82;37.65;;;;;;;;;;4998088;28;20108;-55
2023/12/06 09:58:09;;;;;;;70.75;39.20;;;;;;;;;;4990513;28;20049;-54
2023/12/06 10:00:35;;;;;;;76.20;39.53;;;;;;;;;;4996349;28;20121;-54
2023/12/06 10:03:01;;;;;;;72.15;40.15;;;;;;;;;;4997501;28;20045;-54
2023/12/06 10:05:27;;;;;;;73.28;39.15;;;;;;;;;;5005014;28;20030;-56
2023/12/06 10:07:53;;;;;;;64.07;35.58;;;;;;;;;;5003853;28;20915;-56
2023/12/06 10:10:21;;;;;;;68.88;37.33;;;;;;;;;;4991720;28;20152;-56
2023/12/06 10:12:53;;;;;;;71.50;39.53;;;;;;;;;;4996489;28;20054;-55
2023/12/06 10:15:20;;;;;;;67.45;37.22;;;;;;;;;;4992811;28;20049;-56
2023/12/06 10:17:47;;;;;;;66.25;35.92;;;;;;;;;;5003340;28;20037;-55
2023/12/06 10:20:13;;;;;;;71.85;39.08;;;;;;;;;;5002367;28;20034;-53
2023/12/06 10:22:40;;;;;;;72.60;37.10;;;;;;;;;;5002586;28;20038;-55
2023/12/06 10:25:07;;;;;;;66.47;37.53;;;;;;;;;;4996618;28;20038;-55
2023/12/06 10:27:34;;;;;;;67.55;36.47;;;;;;;;;;4997773;28;20141;-54
2023/12/06 10:30:01;;;;;;;65.80;36.72;;;;;;;;;;4985384;28;20232;-56
2023/12/06 10:32:27;;;;;;;64.35;36.15;;;;;;;;;;4996275;28;20140;-55
2023/12/06 10:34:55;;;;;;;67.95;35.72;;;;;;;;;;5001817;28;20838;-54
2023/12/06 10:37:22;;;;;;;68.43;36.95;;;;;;;;;;4994876;28;20046;-55
2023/12/06 10:39:49;;;;;;;65.15;35.90;;;;;;;;;;4992864;28;20038;-55
2023/12/06 10:42:17;;;;;;;68.50;34.90;;;;;;;;;;4999301;28;20037;-56
2023/12/06 10:44:43;;;;;;;64.82;36.53;;;;;;;;;;5002665;28;20380;-56
2023/12/06 10:47:10;;;;;;;64.93;36.80;;;;;;;;;;5001487;28;20050;-55
2023/12/06 10:49:37;;;;;;;72.43;40.38;;;;;;;;;;4995559;28;20037;-56
2023/12/06 10:52:04;;;;;;;75.43;40.95;;;;;;;;;;5002099;28;20481;-53
2023/12/06 10:54:30;;;;;;;80.20;40.92;;;;;;;;;;5002358;28;20065;-53
2023/12/06 10:56:57;;;;;;;73.20;40.80;;;;;;;;;;5002932;28;20737;-54
2023/12/06 10:59:26;;;;;;;68.20;38.80;;;;;;;;;;4995619;28;20129;-58
2023/12/06 11:01:56;;;;;;;65.70;36.63;;;;;;;;;;4996856;28;20033;-57
2023/12/06 11:04:24;;;;;;;63.15;35.92;;;;;;;;;;4993301;28;20042;-58
2023/12/06 11:07:04;;;;;;;68.20;39.55;;;;;;;;;;4991004;28;20103;-57
2023/12/06 11:09:42;;;;;;;66.60;38.13;;;;;;;;;;5000048;28;20402;-57
2023/12/06 11:12:17;;;;;;;70.22;38.35;;;;;;;;;;4997266;28;20492;-57
2023/12/06 11:15:02;;;;;;;73.20;38.53;;;;;;;;;;5000535;28;20046;-56
2023/12/06 11:17:35;;;;;;;68.53;37.70;;;;;;;;;;4999759;28;20503;-55
2023/12/06 11:20:01;;;;;;;73.18;39.08;;;;;;;;;;4994730;28;20136;-57
2023/12/06 11:22:27;;;;;;;72.20;39.13;;;;;;;;;;4991962;28;20046;-57
2023/12/06 11:24:53;;;;;;;76.85;41.63;;;;;;;;;;4990073;28;20097;-57
2023/12/06 11:27:23;;;;;;;76.70;40.35;;;;;;;;;;4993330;28;20305;-57
2023/12/06 11:29:49;;;;;;;70.10;37.50;;;;;;;;;;5000755;28;20034;-56
2023/12/06 11:32:16;;;;;;;71.20;38.08;;;;;;;;;;4997348;28;20030;-55
2023/12/06 11:34:42;;;;;;;69.95;37.28;;;;;;;;;;5009352;28;20118;-55
2023/12/06 11:37:17;;;;;;;61.15;34.75;;;;;;;;;;5000951;28;20120;-53
2023/12/06 11:40:02;;;;;;;62.25;36.08;;;;;;;;;;4996789;28;20623;-53
2023/12/06 11:42:28;;;;;;;67.72;34.20;;;;;;;;;;4991886;28;20210;-53
2023/12/06 11:44:54;;;;;;;65.85;35.72;;;;;;;;;;5003373;28;20071;-55
2023/12/06 11:47:27;;;;;;;60.83;32.50;;;;;;;;;;5002674;28;20129;-54
2023/12/06 11:49:53;;;;;;;57.60;32.90;;;;;;;;;;5004876;28;20519;-56
2023/12/06 11:52:20;;;;;;;64.70;32.97;;;;;;;;;;5001600;28;20052;-54
2023/12/06 11:54:46;;;;;;;62.80;32.15;;;;;;;;;;4998469;28;20038;-55
2023/12/06 11:57:14;;;;;;;53.97;32.08;;;;;;;;;;4994814;28;20048;-55
2023/12/06 11:59:40;;;;;;;57.15;31.38;;;;;;;;;;5009132;28;20756;-56
2023/12/06 12:02:07;;;;;;;57.90;31.67;;;;;;;;;;5000587;28;20038;-55
2023/12/06 12:04:34;;;;;;;57.67;32.90;;;;;;;;;;5008224;28;20563;-55
2023/12/06 12:07:01;;;;;;;56.92;31.58;;;;;;;;;;5008027;28;20041;-56
2023/12/06 12:09:29;;;;;;;59.22;31.52;;;;;;;;;;5006293;28;20139;-56
2023/12/06 12:11:55;;;;;;;58.30;32.15;;;;;;;;;;5003466;28;20586;-53
2023/12/06 12:14:21;;;;;;;59.63;31.02;;;;;;;;;;4998203;28;20236;-54
2023/12/06 12:16:47;;;;;;;70.43;40.22;;;;;;;;;;4998354;28;20038;-56
2023/12/06 12:19:13;;;;;;;83.75;42.65;;;;;;;;;;5001552;28;20118;-55
2023/12/06 12:21:39;;;;;;;63.30;34.83;;;;;;;;;;4998570;28;20397;-56
2023/12/06 12:24:06;;;;;;;53.70;31.35;;;;;;;;;;4998974;28;20041;-54
2023/12/06 12:26:32;;;;;;;55.33;30.77;;;;;;;;;;5003009;28;20535;-56
2023/12/06 12:28:59;;;;;;;55.63;31.42;;;;;;;;;;5003002;28;20562;-55
2023/12/06 12:31:28;;;;;;;55.10;30.08;;;;;;;;;;4991952;28;20113;-55
2023/12/06 12:33:54;;;;;;;53.55;29.38;;;;;;;;;;5004485;28;20069;-56
2023/12/06 12:36:20;;;;;;;56.85;31.02;;;;;;;;;;5004940;28;20045;-56
2023/12/06 12:38:46;;;;;;;55.85;29.60;;;;;;;;;;5009314;28;20174;-56
2023/12/06 12:41:13;;;;;;;51.78;29.90;;;;;;;;;;5000855;28;20043;-57
2023/12/06 12:43:39;;;;;;;51.50;28.95;;;;;;;;;;5000182;28;20038;-56
2023/12/06 12:46:05;;;;;;;53.50;30.23;;;;;;;;;;5002431;28;20039;-58
2023/12/06 12:48:31;;;;;;;58.53;29.90;;;;;;;;;;4993036;28;20484;-58
2023/12/06 12:51:14;;;;;;;53.63;28.02;;;;;;;;;;4998663;28;20029;-57
2023/12/06 12:53:44;;;;;;;51.90;27.20;;;;;;;;;;5008016;28;20033;-56
2023/12/06 12:56:11;;;;;;;44.65;24.63;;;;;;;;;;4994304;28;20116;-59
2023/12/06 12:58:37;;;;;;;44.85;23.45;;;;;;;;;;5005755;28;20046;-58
2023/12/06 13:01:03;;;;;;;40.63;23.83;;;;;;;;;;5001117;28;20230;-58
2023/12/06 13:03:32;;;;;;;44.08;23.83;;;;;;;;;;5014283;28;20106;-57
2023/12/06 13:05:59;;;;;;;40.70;22.42;;;;;;;;;;5000725;28;20066;-56
2023/12/06 13:08:27;;;;;;;39.03;21.20;;;;;;;;;;4998271;28;20743;-56
2023/12/06 13:10:53;;;;;;;37.50;20.70;;;;;;;;;;5004240;28;20084;-56
2023/12/06 13:13:19;;;;;;;41.17;20.80;;;;;;;;;;4992284;28;20771;-59
2023/12/06 13:15:45;;;;;;;39.75;21.95;;;;;;;;;;4974538;28;20053;-58
2023/12/06 13:18:11;;;;;;;36.03;19.73;;;;;;;;;;5006395;28;20040;-57
2023/12/06 13:20:37;;;;;;;35.22;19.67;;;;;;;;;;5002511;28;20757;-56
2023/12/06 13:23:03;;;;;;;34.08;19.65;;;;;;;;;;4993115;28;20899;-58
2023/12/06 13:25:29;;;;;;;31.00;18.95;;;;;;;;;;5007306;28;20390;-57
2023/12/06 13:27:55;;;;;;;32.00;19.73;;;;;;;;;;5012236;28;20176;-55
2023/12/06 13:30:21;;;;;;;33.28;17.10;;;;;;;;;;4995350;28;21568;-55
2023/12/06 13:32:47;;;;;;;37.03;19.00;;;;;;;;;;5000540;28;20503;-57
2023/12/06 13:35:13;;;;;;;31.05;17.38;;;;;;;;;;4999653;28;20177;-58
2023/12/06 13:37:39;;;;;;;33.15;17.85;;;;;;;;;;4997893;28;20477;-57
2023/12/06 13:40:07;;;;;;;30.13;17.38;;;;;;;;;;4992283;28;20136;-58
2023/12/06 13:42:34;;;;;;;28.38;16.95;;;;;;;;;;5003907;28;20547;-57
2023/12/06 13:45:00;;;;;;;21.83;14.95;;;;;;;;;;4994789;28;20034;-56
2023/12/06 13:47:26;;;;;;;29.67;17.23;;;;;;;;;;4998388;28;20041;-57
2023/12/06 13:49:52;;;;;;;32.83;17.90;;;;;;;;;;5002221;28;20053;-57
2023/12/06 13:52:18;;;;;;;32.10;18.38;;;;;;;;;;5002330;28;20034;-57
2023/12/06 13:54:44;;;;;;;34.75;18.10;;;;;;;;;;4996205;28;20046;-58
2023/12/06 13:57:10;;;;;;;29.92;18.45;;;;;;;;;;4990595;28;20044;-57
2023/12/06 13:59:36;;;;;;;38.88;19.50;;;;;;;;;;5001358;28;20516;-56
2023/12/06 14:02:02;;;;;;;33.28;19.20;;;;;;;;;;4996834;28;20044;-54
2023/12/06 14:04:28;;;;;;;48.17;25.25;;;;;;;;;;5004717;28;20041;-57
2023/12/06 14:06:54;;;;;;;47.70;25.83;;;;;;;;;;5004377;28;20049;-55
2023/12/06 14:09:20;;;;;;;54.75;29.73;;;;;;;;;;5002740;28;20049;-55